Time;durP1;ratioP1;P1;durP2;ratioP2;P2;SDS_P1;SDS_P2;PMS_P1;PMS_P2;Temp;Humidity;BMP_temperature;BMP_pressure;BME280_temperature;BME280_humidity;BME280_pressure;Samples;Min_cycle;Max_cycle;Signal;HPM_P1;HPM_P2
2022/09/06 05:51:06;;;;;;;;;;;17.50;99.90;;;;;;6245479;22;19986;-71
2022/09/06 05:53:38;;;;;;;;;;;17.60;99.90;;;;;;6247333;23;19919;-69
2022/09/06 05:56:03;;;;;;;;;;;17.60;99.90;;;;;;6220319;23;19922;-72
2022/09/06 05:58:29;;;;;;;;;;;17.60;99.90;;;;;;6220770;23;19916;-71
2022/09/06 06:01:05;;;;;;;;;;;17.60;99.90;;;;;;6195532;23;20003;-75
2022/09/06 06:03:30;;;;;;;;;;;17.60;99.90;;;;;;6194348;23;19915;-74
2022/09/06 06:05:56;;;;;;;;;;;17.60;99.90;;;;;;6219713;23;19969;-73
2022/09/06 06:08:21;;;;;;;;;;;17.50;99.90;;;;;;6194544;23;19962;-72
2022/09/06 06:10:47;;;;;;;;;;;17.60;99.90;;;;;;6194873;23;19923;-71
2022/09/06 06:13:13;;;;;;;;;;;17.50;99.90;;;;;;6194443;23;19916;-71
2022/09/06 06:15:38;;;;;;;;;;;17.50;99.90;;;;;;6218904;23;19920;-71
2022/09/06 06:18:04;;;;;;;;;;;17.50;99.90;;;;;;6220444;23;19916;-72
2022/09/06 06:20:29;;;;;;;;;;;17.50;99.90;;;;;;6220554;23;19922;-72
2022/09/06 06:22:55;;;;;;;;;;;17.50;99.90;;;;;;6195363;23;20310;-71
2022/09/06 06:25:24;;;;;;;;;;;17.50;99.90;;;;;;6220154;23;19993;-72
2022/09/06 06:27:51;;;;;;;;;;;17.60;99.90;;;;;;6194958;23;19951;-71
2022/09/06 06:30:16;;;;;;;;;;;17.60;99.90;;;;;;6193917;23;19915;-72
2022/09/06 06:32:42;;;;;;;;;;;17.60;99.90;;;;;;6220355;23;19991;-72
2022/09/06 06:35:08;;;;;;;;;;;17.60;99.90;;;;;;6220349;23;19927;-74
2022/09/06 06:37:34;;;;;;;;;;;17.60;99.90;;;;;;6220235;23;20310;-74
2022/09/06 06:39:59;;;;;;;;;;;17.60;99.90;;;;;;6220344;23;19922;-73
2022/09/06 06:42:25;;;;;;;;;;;17.60;99.90;;;;;;6219270;23;19923;-71
2022/09/06 06:44:52;;;;;;;;;;;17.70;99.90;;;;;;6246862;23;20230;-72
2022/09/06 06:47:18;;;;;;;;;;;17.90;99.90;;;;;;6217813;23;19916;-72
2022/09/06 06:52:59;;;;;;;;;;;18.20;99.90;;;;;;6214669;23;19968;-77
2022/09/06 06:55:25;;;;;;;;;;;18.50;99.90;;;;;;6215111;23;19911;-78
2022/09/06 06:57:51;;;;;;;;;;;18.70;99.90;;;;;;6189507;23;19915;-79
2022/09/06 07:00:16;;;;;;;;;;;18.80;99.90;;;;;;6191115;23;20277;-78
2022/09/06 07:02:42;;;;;;;;;;;19.00;99.90;;;;;;6191145;23;19912;-77
2022/09/06 07:05:11;;;;;;;;;;;19.20;99.90;;;;;;6190239;23;20270;-78
2022/09/06 07:07:40;;;;;;;;;;;19.30;99.90;;;;;;6191220;23;20009;-78
2022/09/06 07:10:05;;;;;;;;;;;19.40;99.90;;;;;;6190580;23;19919;-76
2022/09/06 07:12:31;;;;;;;;;;;19.60;99.90;;;;;;6190677;23;19911;-78
2022/09/06 07:15:22;;;;;;;;;;;19.70;99.90;;;;;;6215455;23;20204;-79
2022/09/06 07:18:06;;;;;;;;;;;19.80;99.90;;;;;;6177761;23;19970;-79
2022/09/06 07:20:43;;;;;;;;;;;19.90;99.90;;;;;;6167186;23;19919;-78
2022/09/06 07:23:26;;;;;;;;;;;20.00;99.90;;;;;;6215636;23;19916;-77
2022/09/06 07:25:54;;;;;;;;;;;20.20;99.90;;;;;;6190245;23;19983;-79
2022/09/06 07:28:34;;;;;;;;;;;20.20;99.90;;;;;;6191317;23;19915;-79
2022/09/06 07:30:59;;;;;;;;;;;20.30;99.90;;;;;;6215333;23;19952;-77
2022/09/06 07:33:30;;;;;;;;;;;20.30;99.90;;;;;;6190569;23;20005;-77
2022/09/06 07:36:24;;;;;;;;;;;20.40;99.90;;;;;;6215113;23;19912;-76
2022/09/06 07:38:53;;;;;;;;;;;20.50;99.90;;;;;;6190207;23;19912;-81
2022/09/06 07:41:45;;;;;;;;;;;20.60;99.90;;;;;;6189842;23;19912;-78
2022/09/06 07:44:24;;;;;;;;;;;20.60;99.90;;;;;;6192826;23;19919;-77
2022/09/06 07:46:55;;;;;;;;;;;20.70;99.90;;;;;;6188177;23;19911;-78
2022/09/06 07:49:29;;;;;;;;;;;20.70;99.90;;;;;;6189505;23;19923;-78
2022/09/06 07:51:57;;;;;;;;;;;20.90;99.90;;;;;;6190001;23;19958;-78
2022/09/06 07:54:28;;;;;;;;;;;20.80;99.90;;;;;;6189393;23;20266;-77
2022/09/06 07:56:58;;;;;;;;;;;20.90;99.90;;;;;;6189774;23;19912;-79
2022/09/06 07:59:34;;;;;;;;;;;21.10;99.90;;;;;;6190946;23;19912;-78
2022/09/06 08:02:17;;;;;;;;;;;20.90;99.90;;;;;;6183564;23;19950;-78
2022/09/06 08:58:51;;;;;;;;;;;23.00;99.90;;;;;;6245880;23;19934;-80
2022/09/06 09:59:57;;;;;;;;;;;25.00;99.90;;;;;;6217457;23;19918;-77
2022/09/06 10:02:43;;;;;;;;;;;24.90;99.50;;;;;;6191191;23;19923;-77
2022/09/06 10:05:12;;;;;;;;;;;24.70;99.30;;;;;;6191968;23;19916;-76
2022/09/06 10:07:42;;;;;;;;;;;24.80;99.90;;;;;;6191463;23;19912;-76
2022/09/06 10:10:20;;;;;;;;;;;24.60;99.30;;;;;;6166640;23;20223;-76
2022/09/06 10:12:46;;;;;;;;;;;24.50;99.60;;;;;;6191484;23;19919;-76
2022/09/06 10:15:30;;;;;;;;;;;24.80;99.20;;;;;;6191117;23;19912;-77
2022/09/06 10:17:56;;;;;;;;;;;25.00;99.40;;;;;;6166442;23;20311;-77
2022/09/06 10:20:29;;;;;;;;;;;25.00;99.20;;;;;;6166506;23;19987;-76
2022/09/06 10:23:09;;;;;;;;;;;25.00;98.80;;;;;;6191540;23;19934;-76
2022/09/06 10:25:37;;;;;;;;;;;25.30;98.60;;;;;;6191577;23;19919;-76
2022/09/06 10:28:21;;;;;;;;;;;25.50;98.70;;;;;;6166057;23;19919;-77
2022/09/06 10:30:47;;;;;;;;;;;25.60;97.00;;;;;;6166480;23;19916;-76
2022/09/06 10:33:15;;;;;;;;;;;25.60;96.80;;;;;;6191309;23;19934;-75
2022/09/06 10:35:40;;;;;;;;;;;25.60;97.00;;;;;;6166225;23;19912;-78
2022/09/06 10:38:17;;;;;;;;;;;25.70;96.70;;;;;;6191165;23;19991;-77
2022/09/06 10:40:42;;;;;;;;;;;25.70;95.90;;;;;;6216201;23;19999;-76
2022/09/06 10:43:12;;;;;;;;;;;25.80;97.20;;;;;;6190601;23;20314;-76
2022/09/06 10:45:58;;;;;;;;;;;26.00;96.20;;;;;;6190833;23;19912;-75
2022/09/06 10:48:32;;;;;;;;;;;25.90;95.40;;;;;;6190830;23;19973;-76
2022/09/06 10:51:04;;;;;;;;;;;26.10;94.80;;;;;;6190532;23;20230;-76
2022/09/06 10:53:48;;;;;;;;;;;25.90;94.70;;;;;;6189984;23;19916;-76
2022/09/06 10:56:28;;;;;;;;;;;25.90;94.80;;;;;;6190033;23;19920;-75
2022/09/06 10:59:13;;;;;;;;;;;26.10;94.40;;;;;;6191143;23;19944;-80
2022/09/06 11:02:09;;;;;;;;;;;25.80;94.50;;;;;;6192437;23;20307;-83
2022/09/06 11:04:43;;;;;;;;;;;25.80;95.30;;;;;;6189256;23;20284;-78
2022/09/06 11:57:21;;;;;;;;;;;26.30;94.80;;;;;;6236664;22;19919;-75
2022/09/06 11:59:54;;;;;;;;;;;26.40;94.00;;;;;;6217706;23;19911;-75
2022/09/06 12:06:12;;;;;;;;;;;26.40;94.10;;;;;;6063164;23;19913;-78
2022/09/06 12:09:51;;;;;;;;;;;;;;;;;;;;;
2022/09/06 12:12:49;;;;;;;;;;;;;;;;;;;;;
2022/09/06 12:15:56;;;;;;;;;;;26.80;93.50;;;;;;6188010;23;19958;-78
2022/09/06 12:21:51;;;;;;;;;;;26.80;94.20;;;;;;6007233;23;19914;-80
2022/09/06 12:24:37;;;;;;;;;;;26.60;93.90;;;;;;6007487;23;19920;-75
2022/09/06 12:27:30;;;;;;;;;;;26.80;93.10;;;;;;5960406;23;19966;-77
2022/09/06 12:42:53;;;;;;;;;;;26.20;94.50;;;;;;6243710;23;19926;-79
2022/09/06 12:45:20;;;;;;;;;;;26.50;95.40;;;;;;6193103;23;19915;-78
2022/09/06 12:47:46;;;;;;;;;;;26.80;96.20;;;;;;6218430;23;19991;-78
2022/09/06 12:50:24;;;;;;;;;;;27.20;95.20;;;;;;6193473;23;19951;-80
2022/09/06 12:53:15;;;;;;;;;;;27.40;94.30;;;;;;6218108;23;19942;-78
2022/09/06 12:55:40;;;;;;;;;;;27.20;93.90;;;;;;6218100;23;20416;-74
2022/09/06 12:58:41;;;;;;;;;;;27.10;93.40;;;;;;6193538;23;19920;-80
2022/09/06 13:02:02;;;;;;;;;;;;;;;;;;;;;
2022/09/06 13:04:48;;;;;;;;;;;27.10;94.00;;;;;;6218405;23;19918;-79
2022/09/06 13:07:25;;;;;;;;;;;27.30;93.90;;;;;;6218188;23;19957;-76
2022/09/06 13:09:53;;;;;;;;;;;27.50;93.80;;;;;;6192991;23;19930;-75
2022/09/06 13:12:53;;;;;;;;;;;27.40;93.30;;;;;;6221698;23;19910;-74
2022/09/06 13:15:29;;;;;;;;;;;27.30;93.40;;;;;;6214258;23;19911;-78
2022/09/06 13:18:27;;;;;;;;;;;;;;;;;;;;;
2022/09/06 13:21:14;;;;;;;;;;;27.50;92.10;;;;;;6220318;23;19919;-77
2022/09/06 13:23:47;;;;;;;;;;;27.70;91.90;;;;;;6220351;23;19946;-81
2022/09/06 13:26:41;;;;;;;;;;;27.60;92.20;;;;;;6220930;23;20289;-80
2022/09/06 13:29:15;;;;;;;;;;;27.60;91.70;;;;;;6222340;23;19912;-77
2022/09/06 13:31:44;;;;;;;;;;;27.50;91.20;;;;;;6201376;22;19907;-78
2022/09/06 13:34:18;;;;;;;;;;;27.50;91.50;;;;;;6249706;22;19930;-78
2022/09/06 13:36:47;;;;;;;;;;;27.50;91.80;;;;;;6194150;22;19904;-78
2022/09/06 13:39:27;;;;;;;;;;;27.50;92.40;;;;;;6224475;22;19916;-78
2022/09/06 13:41:59;;;;;;;;;;;27.70;92.10;;;;;;6223977;22;19914;-77
2022/09/06 13:44:35;;;;;;;;;;;27.60;92.40;;;;;;6249356;22;19908;-79
2022/09/06 13:47:09;;;;;;;;;;;27.40;92.30;;;;;;6245330;23;19916;-82
2022/09/06 13:49:49;;;;;;;;;;;;;;;;;;;;;
2022/09/06 13:52:14;;;;;;;;;;;27.80;92.40;;;;;;6219044;23;19911;-79
2022/09/06 13:54:40;;;;;;;;;;;27.90;92.30;;;;;;6194089;23;19965;-82
2022/09/06 13:57:08;;;;;;;;;;;28.00;91.10;;;;;;6191298;23;20241;-80
2022/09/06 14:02:31;;;;;;;;;;;28.00;92.00;;;;;;6217337;23;20303;-81
2022/09/06 14:04:59;;;;;;;;;;;28.00;91.80;;;;;;6194477;23;19918;-81
2022/09/06 14:07:27;;;;;;;;;;;28.10;91.80;;;;;;6194386;23;20329;-79
2022/09/06 14:09:53;;;;;;;;;;;28.00;91.60;;;;;;6195374;23;19916;-79
2022/09/06 14:12:19;;;;;;;;;;;28.10;91.20;;;;;;6200979;23;19974;-76
2022/09/06 14:14:45;;;;;;;;;;;28.10;91.20;;;;;;6223638;23;19916;-80
2022/09/06 14:17:10;;;;;;;;;;;28.10;91.70;;;;;;6194168;23;20361;-82
2022/09/06 14:19:36;;;;;;;;;;;28.10;91.50;;;;;;6219032;23;19911;-82
2022/09/06 14:22:03;;;;;;;;;;;28.20;91.20;;;;;;6194353;23;19911;-80
2022/09/06 14:24:29;;;;;;;;;;;28.00;91.20;;;;;;6193747;23;19918;-81
2022/09/06 14:26:54;;;;;;;;;;;28.00;92.00;;;;;;6193866;23;20474;-79
2022/09/06 14:29:20;;;;;;;;;;;28.00;92.20;;;;;;6194687;23;20274;-82
2022/09/06 14:31:47;;;;;;;;;;;27.90;91.90;;;;;;6194428;23;19919;-81
2022/09/06 14:34:13;;;;;;;;;;;27.80;91.50;;;;;;6194260;23;20208;-82
2022/09/06 14:36:39;;;;;;;;;;;27.60;91.90;;;;;;6194614;23;19947;-79
2022/09/06 14:39:10;;;;;;;;;;;27.60;92.70;;;;;;6193678;23;19918;-80
2022/09/06 14:41:36;;;;;;;;;;;27.50;92.90;;;;;;6193408;23;19918;-81
2022/09/06 14:44:02;;;;;;;;;;;27.50;93.00;;;;;;6194289;23;19915;-82
2022/09/06 14:46:36;;;;;;;;;;;27.30;93.20;;;;;;6193782;23;19922;-81
2022/09/06 14:49:10;;;;;;;;;;;27.20;93.60;;;;;;6194404;23;19918;-78
2022/09/06 14:51:37;;;;;;;;;;;27.10;94.10;;;;;;6194087;23;19915;-81
2022/09/06 14:54:05;;;;;;;;;;;27.00;93.60;;;;;;6195751;23;19912;-81
2022/09/06 14:56:31;;;;;;;;;;;26.90;93.30;;;;;;6219763;23;19919;-80
2022/09/06 14:58:59;;;;;;;;;;;26.90;92.90;;;;;;6195189;23;19911;-80
2022/09/06 15:01:30;;;;;;;;;;;26.70;93.80;;;;;;6170197;23;19943;-81
2022/09/06 15:03:57;;;;;;;;;;;26.60;94.10;;;;;;6195158;23;19918;-79
2022/09/06 15:06:23;;;;;;;;;;;26.60;94.00;;;;;;6194741;23;19920;-80
2022/09/06 15:08:49;;;;;;;;;;;26.60;94.10;;;;;;6195125;23;19982;-79
2022/09/06 15:11:35;;;;;;;;;;;26.60;94.30;;;;;;6195186;23;19958;-81
2022/09/06 15:14:06;;;;;;;;;;;26.50;94.20;;;;;;6220648;23;19916;-79
2022/09/06 15:16:32;;;;;;;;;;;26.30;94.80;;;;;;6219878;23;19912;-81
2022/09/06 15:18:58;;;;;;;;;;;26.30;94.00;;;;;;6195033;23;19946;-81
2022/09/06 15:21:24;;;;;;;;;;;26.20;94.30;;;;;;6194512;23;19912;-80
2022/09/06 15:23:50;;;;;;;;;;;26.20;94.30;;;;;;6195016;23;19922;-80
2022/09/06 15:26:17;;;;;;;;;;;26.20;95.00;;;;;;6195098;23;20230;-80
2022/09/06 15:28:55;;;;;;;;;;;26.20;94.50;;;;;;6196765;23;19934;-82
2022/09/06 15:31:21;;;;;;;;;;;26.20;95.20;;;;;;6194441;23;19920;-81
2022/09/06 15:33:50;;;;;;;;;;;26.10;95.00;;;;;;6195430;23;20255;-80
2022/09/06 15:36:20;;;;;;;;;;;26.10;95.50;;;;;;6194727;23;19919;-81
2022/09/06 15:38:49;;;;;;;;;;;26.10;95.30;;;;;;6194331;23;22030;-80
2022/09/06 15:41:20;;;;;;;;;;;26.20;95.30;;;;;;6193900;23;19970;-81
2022/09/06 15:43:51;;;;;;;;;;;26.20;95.40;;;;;;6194201;23;20226;-82
2022/09/06 15:46:21;;;;;;;;;;;26.20;96.00;;;;;;6194049;23;19912;-78
2022/09/06 15:48:52;;;;;;;;;;;26.10;95.80;;;;;;6199340;23;19916;-76
2022/09/06 15:51:19;;;;;;;;;;;26.10;96.10;;;;;;6198308;23;20212;-80
2022/09/06 15:54:18;;;;;;;;;;;26.00;96.30;;;;;;6196491;23;19912;-83
2022/09/06 15:57:11;;;;;;;;;;;26.00;96.30;;;;;;6220430;23;19930;-82
2022/09/06 16:00:21;;;;;;;;;;;26.10;96.50;;;;;;6194821;23;19915;-82
2022/09/06 16:02:41;;;;;;;;;;;26.10;96.60;;;;;;6215052;23;19918;-81
2022/09/06 16:05:16;;;;;;;;;;;26.00;96.60;;;;;;6193784;23;19987;-81
2022/09/06 16:11:12;;;;;;;;;;;26.10;96.60;;;;;;6219232;23;19939;-76
2022/09/06 16:13:38;;;;;;;;;;;26.20;96.90;;;;;;6193559;23;19918;-77
2022/09/06 16:16:05;;;;;;;;;;;26.20;96.60;;;;;;6218515;23;20261;-76
2022/09/06 16:18:31;;;;;;;;;;;26.10;96.20;;;;;;6218209;23;19930;-78
2022/09/06 16:20:59;;;;;;;;;;;26.10;95.80;;;;;;6193582;23;20322;-74
2022/09/06 16:23:24;;;;;;;;;;;26.10;95.70;;;;;;6219177;23;19915;-77
2022/09/06 16:25:53;;;;;;;;;;;26.00;95.60;;;;;;6245828;23;20226;-75
2022/09/06 16:28:18;;;;;;;;;;;25.90;95.90;;;;;;6192665;23;19915;-77
2022/09/06 16:30:44;;;;;;;;;;;25.80;96.20;;;;;;6219323;23;19923;-79
2022/09/06 16:33:11;;;;;;;;;;;25.70;96.00;;;;;;6219183;23;20281;-77
2022/09/06 16:35:38;;;;;;;;;;;25.60;96.10;;;;;;6219738;23;19916;-78
2022/09/06 16:38:03;;;;;;;;;;;25.40;96.50;;;;;;6219250;23;19998;-78
2022/09/06 16:40:29;;;;;;;;;;;25.40;96.90;;;;;;6219056;23;20075;-77
2022/09/06 16:42:54;;;;;;;;;;;25.20;97.60;;;;;;6078899;23;2686524;-74
2022/09/06 16:45:34;;;;;;;;;;;25.10;98.20;;;;;;6218791;23;19921;-76
2022/09/06 16:48:00;;;;;;;;;;;24.90;98.80;;;;;;6219278;23;19919;-74
2022/09/06 16:50:41;;;;;;;;;;;24.90;99.40;;;;;;6195158;23;19944;-75
2022/09/06 16:53:07;;;;;;;;;;;24.80;99.60;;;;;;6194523;23;19994;-77
2022/09/06 16:55:37;;;;;;;;;;;24.80;99.90;;;;;;6193657;23;19942;-77
2022/09/06 16:58:03;;;;;;;;;;;24.70;99.90;;;;;;6193953;23;19916;-75
2022/09/06 17:00:28;;;;;;;;;;;24.70;99.90;;;;;;6219183;23;19936;-76
2022/09/06 17:02:55;;;;;;;;;;;24.60;99.90;;;;;;6195983;23;19920;-74
2022/09/06 17:05:21;;;;;;;;;;;24.50;99.90;;;;;;6221426;23;19920;-75
2022/09/06 17:07:46;;;;;;;;;;;24.50;99.90;;;;;;6221543;23;19924;-74
2022/09/06 17:10:12;;;;;;;;;;;24.40;99.90;;;;;;6196395;23;19915;-74
2022/09/06 17:12:37;;;;;;;;;;;24.30;99.90;;;;;;6196823;23;20040;-74
2022/09/06 17:15:03;;;;;;;;;;;24.30;99.90;;;;;;6195909;23;19916;-75
2022/09/06 17:17:29;;;;;;;;;;;24.20;99.90;;;;;;6221076;23;20310;-73
2022/09/06 17:19:55;;;;;;;;;;;24.10;99.90;;;;;;6195958;23;19990;-74
2022/09/06 17:22:21;;;;;;;;;;;24.10;99.90;;;;;;6220630;23;20279;-73
2022/09/06 17:24:46;;;;;;;;;;;24.00;99.90;;;;;;6195728;23;19916;-75
2022/09/06 17:27:12;;;;;;;;;;;24.00;99.90;;;;;;6221061;23;19915;-74
2022/09/06 17:29:38;;;;;;;;;;;23.90;99.90;;;;;;6196298;23;19950;-76
2022/09/06 17:32:08;;;;;;;;;;;23.90;99.90;;;;;;6195550;23;19922;-74
2022/09/06 17:34:38;;;;;;;;;;;23.80;99.90;;;;;;6220783;23;20314;-75
2022/09/06 17:37:04;;;;;;;;;;;23.80;99.90;;;;;;6221095;23;19923;-75
2022/09/06 17:39:30;;;;;;;;;;;23.70;99.90;;;;;;6195828;23;19915;-74
2022/09/06 17:41:55;;;;;;;;;;;23.60;99.90;;;;;;6220839;23;19911;-76
2022/09/06 17:44:24;;;;;;;;;;;23.50;99.90;;;;;;6220994;23;19915;-75
2022/09/06 17:46:49;;;;;;;;;;;23.40;99.90;;;;;;6220782;23;19958;-75
2022/09/06 17:49:16;;;;;;;;;;;23.20;99.90;;;;;;6194467;23;19915;-75
2022/09/06 17:51:42;;;;;;;;;;;23.20;99.90;;;;;;6195956;23;19919;-75
2022/09/06 17:54:09;;;;;;;;;;;23.10;99.90;;;;;;6195799;23;19916;-75
2022/09/06 17:56:34;;;;;;;;;;;22.90;99.90;;;;;;6220777;23;19947;-73
2022/09/06 17:59:02;;;;;;;;;;;22.80;99.90;;;;;;6220407;23;19927;-75
2022/09/06 18:01:28;;;;;;;;;;;22.80;99.90;;;;;;6220471;23;19954;-75
2022/09/06 18:03:54;;;;;;;;;;;22.70;99.90;;;;;;6247297;23;19919;-74
2022/09/06 18:06:24;;;;;;;;;;;22.60;99.90;;;;;;6220289;23;19916;-75
2022/09/06 18:08:51;;;;;;;;;;;22.60;99.90;;;;;;6195440;23;20319;-75
2022/09/06 18:11:18;;;;;;;;;;;22.50;99.90;;;;;;6221449;23;19915;-77
2022/09/06 18:13:44;;;;;;;;;;;22.50;99.90;;;;;;6196210;23;19912;-76
2022/09/06 18:16:10;;;;;;;;;;;22.40;99.90;;;;;;6196088;23;19969;-75
2022/09/06 18:18:36;;;;;;;;;;;22.40;99.90;;;;;;6195997;23;19946;-75
2022/09/06 18:21:04;;;;;;;;;;;22.30;99.90;;;;;;6195899;23;20230;-75
2022/09/06 18:23:30;;;;;;;;;;;22.20;99.90;;;;;;6221053;23;20346;-75
2022/09/06 18:25:57;;;;;;;;;;;22.10;99.90;;;;;;6221681;23;19962;-75
2022/09/06 18:28:22;;;;;;;;;;;22.10;99.90;;;;;;6221278;23;19911;-75
2022/09/06 18:30:48;;;;;;;;;;;22.00;99.90;;;;;;6196139;23;19922;-75
2022/09/06 18:33:14;;;;;;;;;;;22.00;99.90;;;;;;6221060;23;19947;-75
2022/09/06 18:35:40;;;;;;;;;;;21.90;99.90;;;;;;6196165;23;19916;-75
2022/09/06 18:38:08;;;;;;;;;;;21.80;99.90;;;;;;6220883;23;19911;-76
2022/09/06 18:40:36;;;;;;;;;;;21.80;99.90;;;;;;6248308;23;20329;-76
2022/09/06 18:43:01;;;;;;;;;;;21.80;99.90;;;;;;6221007;23;19918;-75
2022/09/06 18:45:29;;;;;;;;;;;21.70;99.90;;;;;;6196069;23;19916;-74
2022/09/06 18:51:46;;;;;;;;;;;21.60;99.90;;;;;;6125704;23;20386;-85
2022/09/06 19:01:41;;;;;;;;;;;;;;;;;;;;;
2022/09/06 19:05:03;;;;;;;;;;;21.40;99.90;;;;;;6036558;23;19921;-81
2022/09/06 19:07:29;;;;;;;;;;;21.40;99.90;;;;;;5961583;23;20427;-78
2022/09/06 19:09:55;;;;;;;;;;;21.30;99.90;;;;;;6044162;23;19962;-80
2022/09/06 19:12:21;;;;;;;;;;;21.30;99.90;;;;;;6131120;23;19950;-75
2022/09/06 19:14:46;;;;;;;;;;;21.30;99.90;;;;;;6246511;23;19915;-77
2022/09/06 19:17:12;;;;;;;;;;;21.20;99.90;;;;;;6193921;23;19912;-74
2022/09/06 19:19:37;;;;;;;;;;;21.20;99.90;;;;;;6219053;23;19947;-74
2022/09/06 19:22:03;;;;;;;;;;;21.20;99.90;;;;;;6194576;23;19965;-76
2022/09/06 19:24:28;;;;;;;;;;;21.10;99.90;;;;;;6219395;23;19915;-77
2022/09/06 19:26:54;;;;;;;;;;;21.10;99.90;;;;;;6194003;23;19922;-73
2022/09/06 19:29:20;;;;;;;;;;;21.10;99.90;;;;;;6219029;23;20018;-76
2022/09/06 19:31:46;;;;;;;;;;;21.00;99.90;;;;;;6218892;23;19916;-75
2022/09/06 19:34:14;;;;;;;;;;;21.00;99.90;;;;;;6218968;23;20281;-70
2022/09/06 19:36:39;;;;;;;;;;;21.00;99.90;;;;;;6218787;23;19916;-72
2022/09/06 19:39:06;;;;;;;;;;;21.00;99.90;;;;;;6218871;23;19920;-67
2022/09/06 19:41:36;;;;;;;;;;;21.00;99.90;;;;;;6218598;23;19916;-71
2022/09/06 19:44:04;;;;;;;;;;;21.00;99.90;;;;;;6194931;23;19954;-69
2022/09/06 19:46:30;;;;;;;;;;;20.90;99.90;;;;;;6195574;23;19926;-70
2022/09/06 19:48:56;;;;;;;;;;;20.90;99.90;;;;;;6194842;23;20254;-72
2022/09/06 19:51:22;;;;;;;;;;;20.90;99.90;;;;;;6219916;23;19915;-68
2022/09/06 19:53:48;;;;;;;;;;;20.90;99.90;;;;;;6220444;23;20319;-69
2022/09/06 19:56:15;;;;;;;;;;;20.80;99.90;;;;;;6216562;23;19916;-71
2022/09/06 19:58:41;;;;;;;;;;;20.80;99.90;;;;;;6246364;23;19916;-71
2022/09/06 20:01:08;;;;;;;;;;;20.70;99.90;;;;;;6194315;23;19970;-69
2022/09/06 20:03:36;;;;;;;;;;;20.70;99.90;;;;;;6194591;23;19916;-69
2022/09/06 20:06:03;;;;;;;;;;;20.60;99.90;;;;;;6218951;23;20273;-72
2022/09/06 20:08:29;;;;;;;;;;;20.60;99.90;;;;;;6219175;23;19923;-71
2022/09/06 20:10:56;;;;;;;;;;;20.60;99.90;;;;;;6245594;23;20230;-70
2022/09/06 20:13:22;;;;;;;;;;;20.50;99.90;;;;;;6218760;23;19915;-70
2022/09/06 20:15:48;;;;;;;;;;;20.50;99.90;;;;;;6218600;23;19922;-73
2022/09/06 20:18:14;;;;;;;;;;;20.40;99.90;;;;;;6193576;23;19965;-68
2022/09/06 20:20:40;;;;;;;;;;;20.40;99.90;;;;;;6192666;23;20011;-70
2022/09/06 20:23:08;;;;;;;;;;;20.20;99.90;;;;;;6192134;23;19955;-71
2022/09/06 20:25:35;;;;;;;;;;;20.20;99.90;;;;;;6216790;23;19915;-71
2022/09/06 20:28:01;;;;;;;;;;;20.20;99.90;;;;;;6192390;23;19923;-71
2022/09/06 20:30:28;;;;;;;;;;;20.20;99.90;;;;;;6192224;23;19920;-71
2022/09/06 20:32:56;;;;;;;;;;;20.10;99.90;;;;;;6192887;23;20010;-71
2022/09/06 20:35:23;;;;;;;;;;;20.10;99.90;;;;;;6191803;23;19950;-69
2022/09/06 20:37:49;;;;;;;;;;;20.10;99.90;;;;;;6217356;23;20752;-69
2022/09/06 20:40:14;;;;;;;;;;;20.00;99.90;;;;;;6192430;23;19916;-69
2022/09/06 20:42:42;;;;;;;;;;;19.80;99.90;;;;;;6192051;23;19922;-69
2022/09/06 20:45:08;;;;;;;;;;;19.70;99.90;;;;;;6217292;23;19958;-69
2022/09/06 20:47:33;;;;;;;;;;;19.70;99.90;;;;;;6192766;23;19919;-72
2022/09/06 20:49:59;;;;;;;;;;;19.60;99.90;;;;;;6193232;23;19915;-74
